Time;durP1;ratioP1;P1;durP2;ratioP2;P2;SDS_P1;SDS_P2;PMS_P1;PMS_P2;Temp;Humidity;BMP_temperature;BMP_pressure;BME280_temperature;BME280_humidity;BME280_pressure;Samples;Min_cycle;Max_cycle;Signal;HPM_P1;HPM_P2
2021/04/02 00:01:00;;;;;;;11.55;6.57;;;11.40;93.50;;;;;;6278498;28;20052;-81
2021/04/02 00:04:01;;;;;;;13.82;7.15;;;11.70;93.60;;;;;;6279322;28;20398;-80
2021/04/02 00:07:05;;;;;;;11.95;6.88;;;11.20;94.00;;;;;;6278664;28;20036;-81
2021/04/02 00:10:08;;;;;;;13.55;7.03;;;11.10;94.30;;;;;;6278538;28;20477;-80
2021/04/02 00:13:09;;;;;;;11.10;6.97;;;11.70;94.40;;;;;;6294946;28;20055;-80
2021/04/02 00:16:10;;;;;;;16.63;7.35;;;10.90;94.80;;;;;;6295164;28;20028;-81
2021/04/02 00:19:11;;;;;;;10.17;6.43;;;11.00;94.80;;;;;;6295040;28;20093;-80
2021/04/02 00:22:12;;;;;;;15.23;7.38;;;;;;;;;;6278401;28;20024;-81
2021/04/02 00:25:13;;;;;;;12.05;7.03;;;11.10;92.60;;;;;;6295974;28;20041;-80
2021/04/02 00:28:14;;;;;;;17.45;7.57;;;11.40;93.90;;;;;;6278431;28;20111;-80
2021/04/02 00:31:14;;;;;;;15.13;6.75;;;11.50;93.90;;;;;;6294612;28;20028;-81
2021/04/02 00:34:15;;;;;;;14.32;7.38;;;11.50;93.80;;;;;;6296129;28;20060;-81
2021/04/02 00:37:16;;;;;;;16.08;7.38;;;11.30;94.00;;;;;;6295845;28;20427;-81
2021/04/02 00:40:21;;;;;;;12.88;6.82;;;11.60;93.60;;;;;;6292895;28;20039;-80
2021/04/02 00:43:27;;;;;;;11.02;7.32;;;11.50;92.00;;;;;;6261335;28;20093;-81
2021/04/02 00:46:27;;;;;;;13.20;7.22;;;11.50;93.50;;;;;;6277841;28;20040;-81
2021/04/02 00:49:28;;;;;;;14.25;7.75;;;11.40;94.00;;;;;;6261004;28;20112;-81
2021/04/02 00:52:28;;;;;;;16.45;7.53;;;11.20;94.50;;;;;;6295238;28;20033;-81
2021/04/02 00:55:29;;;;;;;13.55;8.25;;;11.00;94.90;;;;;;6277732;28;20031;-81
2021/04/02 00:58:32;;;;;;;13.23;7.63;;;11.40;94.60;;;;;;6277542;28;20346;-81
2021/04/02 01:01:32;;;;;;;12.93;8.10;;;11.50;94.40;;;;;;6294155;28;20028;-80
2021/04/02 01:04:33;;;;;;;13.32;7.22;;;11.60;93.10;;;;;;6293680;28;20094;-80
2021/04/02 01:07:34;;;;;;;21.42;9.35;;;11.60;93.00;;;;;;6293604;28;20028;-80
2021/04/02 01:10:34;;;;;;;15.38;7.82;;;11.40;93.00;;;;;;6277357;28;20033;-81
2021/04/02 01:13:36;;;;;;;16.73;8.70;;;11.60;93.80;;;;;;6276932;28;20025;-81
2021/04/02 01:16:37;;;;;;;16.48;9.25;;;11.10;94.40;;;;;;6277074;28;20064;-80
2021/04/02 01:19:42;;;;;;;12.70;7.72;;;11.10;96.40;;;;;;6260499;28;20028;-81
2021/04/02 01:22:43;;;;;;;15.95;9.32;;;10.80;96.50;;;;;;6293374;28;20027;-81
2021/04/02 01:25:58;;;;;;;17.88;9.10;;;10.80;96.40;;;;;;6276540;28;20810;-81
2021/04/02 01:29:08;;;;;;;19.70;8.82;;;11.00;94.70;;;;;;6293338;28;20043;-80
2021/04/02 01:32:17;;;;;;;14.98;8.13;;;10.70;99.90;;;;;;6293075;28;20070;-80
2021/04/02 01:35:36;;;;;;;13.93;8.00;;;10.70;99.90;;;;;;6293144;28;20039;-80
2021/04/02 01:38:37;;;;;;;18.40;9.80;;;;;;;;;;6278277;28;20059;-80
2021/04/02 01:41:40;;;;;;;16.02;8.45;;;10.60;99.90;;;;;;6276130;28;20555;-80
2021/04/02 01:44:41;;;;;;;17.20;9.68;;;;;;;;;;6294338;28;20036;-81
2021/04/02 01:47:42;;;;;;;21.50;9.93;;;;;;;;;;6293293;28;20374;-81
2021/04/02 01:50:44;;;;;;;19.13;9.55;;;10.60;99.90;;;;;;6294046;28;20108;-80
2021/04/02 01:53:47;;;;;;;19.70;8.88;;;9.60;99.90;;;;;;6292662;28;20454;-80
2021/04/02 01:56:50;;;;;;;;;;;10.90;98.00;;;;;;6293133;28;20078;-80
2021/04/02 01:59:51;;;;;;;21.00;9.68;;;11.10;95.60;;;;;;6292683;28;19904;-80
2021/04/02 02:02:53;;;;;;;19.15;8.65;;;10.80;99.90;;;;;;6275755;28;20044;-81
2021/04/02 02:05:54;;;;;;;22.05;10.02;;;11.00;96.00;;;;;;6292333;28;20044;-80
2021/04/02 02:08:56;;;;;;;25.67;10.32;;;10.60;96.10;;;;;;6275884;28;20028;-81
2021/04/02 02:11:58;;;;;;;19.15;10.75;;;11.20;96.90;;;;;;6292186;28;20033;-80
2021/04/02 02:14:59;;;;;;;;;;;10.70;98.70;;;;;;6293311;28;20029;-81
2021/04/02 02:18:00;;;;;;;23.02;9.35;;;10.60;99.90;;;;;;6291823;28;19916;-80
2021/04/02 02:21:01;;;;;;;18.67;9.80;;;10.50;99.90;;;;;;6259004;28;20020;-81
2021/04/02 02:24:01;;;;;;;19.52;10.80;;;10.60;99.90;;;;;;6275466;28;20041;-80
2021/04/02 02:27:04;;;;;;;17.80;9.77;;;10.30;99.90;;;;;;6275174;28;20039;-80
2021/04/02 02:30:16;;;;;;;18.58;9.05;;;10.20;99.20;;;;;;6275355;28;20509;-81
2021/04/02 02:33:16;;;;;;;19.23;9.90;;;10.30;99.90;;;;;;6275991;28;20036;-80
2021/04/02 02:36:17;;;;;;;19.08;9.85;;;10.20;99.90;;;;;;6274924;28;20485;-80
2021/04/02 02:39:17;;;;;;;18.48;9.98;;;10.80;99.90;;;;;;6258404;28;20074;-80
2021/04/02 02:42:18;;;;;;;22.30;9.80;;;10.00;99.90;;;;;;6291305;28;20482;-80
2021/04/02 02:45:19;;;;;;;18.77;10.60;;;9.90;99.90;;;;;;6258478;28;20645;-80
2021/04/02 02:48:19;;;;;;;20.95;9.77;;;9.80;99.90;;;;;;6291648;28;20111;-80
2021/04/02 02:51:20;;;;;;;33.50;11.55;;;9.90;99.00;;;;;;6274452;28;20035;-80
2021/04/02 02:54:21;;;;;;;20.48;10.43;;;9.30;99.70;;;;;;6258205;28;20025;-80
2021/04/02 02:57:22;;;;;;;23.00;10.55;;;9.20;99.60;;;;;;6274657;28;20036;-81
2021/04/02 03:00:28;;;;;;;19.23;10.50;;;9.20;99.30;;;;;;6274999;28;20033;-80
2021/04/02 03:03:28;;;;;;;14.88;9.82;;;9.10;99.70;;;;;;6257159;28;20101;-81
2021/04/02 03:06:30;;;;;;;22.50;10.20;;;9.00;99.90;;;;;;6274637;28;20056;-80
2021/04/02 03:09:31;;;;;;;16.85;10.40;;;9.00;99.90;;;;;;6275059;28;20111;-81
2021/04/02 03:12:32;;;;;;;17.77;10.00;;;9.10;99.90;;;;;;6274769;28;20040;-80
2021/04/02 03:15:32;;;;;;;21.50;9.65;;;8.90;99.90;;;;;;6274637;28;20029;-81
2021/04/02 03:18:33;;;;;;;17.83;10.82;;;;;;;;;;6274918;28;20398;-81
2021/04/02 03:21:35;;;;;;;16.70;9.40;;;8.80;98.60;;;;;;6275036;28;20364;-80
2021/04/02 03:24:39;;;;;;;22.00;10.73;;;8.80;99.90;;;;;;6258053;28;20036;-81
2021/04/02 03:27:40;;;;;;;22.20;11.07;;;8.80;99.90;;;;;;6274619;28;20130;-80
2021/04/02 03:30:41;;;;;;;25.10;11.23;;;;;;;;;;6274464;28;20024;-80
2021/04/02 03:33:46;;;;;;;18.65;10.52;;;8.60;99.20;;;;;;6292861;28;20037;-80
2021/04/02 03:36:47;;;;;;;22.40;11.48;;;8.60;99.90;;;;;;6275427;28;20154;-80
2021/04/02 03:39:48;;;;;;;21.40;10.70;;;8.90;99.90;;;;;;6291121;28;20021;-80
2021/04/02 03:42:52;;;;;;;19.13;11.38;;;8.60;99.90;;;;;;6290926;28;20490;-81
2021/04/02 03:45:53;;;;;;;30.35;14.70;;;8.40;99.90;;;;;;6257754;28;20454;-80
2021/04/02 03:48:58;;;;;;;22.08;11.88;;;9.40;99.90;;;;;;6291430;28;20024;-81
2021/04/02 03:52:06;;;;;;;25.95;12.02;;;8.30;99.90;;;;;;6290878;28;20028;-80
2021/04/02 03:55:07;;;;;;;22.60;12.73;;;8.20;99.90;;;;;;6275799;28;20038;-80
2021/04/02 03:58:09;;;;;;;26.73;11.90;;;8.30;99.90;;;;;;6274555;28;20021;-80
2021/04/02 04:01:12;;;;;;;27.60;12.57;;;8.40;99.90;;;;;;6274587;28;20026;-81
2021/04/02 04:04:12;;;;;;;28.73;13.75;;;8.20;99.90;;;;;;6274257;28;20127;-80
2021/04/02 04:07:13;;;;;;;26.60;13.93;;;8.10;99.90;;;;;;6274520;28;20081;-80
2021/04/02 04:10:14;;;;;;;24.40;13.32;;;8.20;97.70;;;;;;6274081;28;20062;-80
2021/04/02 04:13:16;;;;;;;22.08;12.52;;;8.20;97.10;;;;;;6275455;28;20035;-80
2021/04/02 04:16:19;;;;;;;24.33;11.32;;;8.70;97.20;;;;;;6262495;28;20028;-81
2021/04/02 04:19:20;;;;;;;;;;;8.70;96.90;;;;;;6262831;28;20536;-80
2021/04/02 04:22:20;;;;;;;25.98;13.52;;;8.50;95.70;;;;;;6295106;28;19904;-80
2021/04/02 04:25:26;;;;;;;22.02;12.52;;;8.60;96.70;;;;;;6278646;28;20044;-81
2021/04/02 04:28:27;;;;;;;24.83;12.77;;;8.40;96.60;;;;;;6278987;28;20021;-80
2021/04/02 04:31:27;;;;;;;28.70;12.73;;;8.30;97.20;;;;;;6278572;28;20081;-80
2021/04/02 04:34:29;;;;;;;26.58;13.13;;;8.30;97.30;;;;;;6294893;28;20374;-80
2021/04/02 04:37:29;;;;;;;21.90;13.10;;;8.20;97.40;;;;;;6277892;28;20074;-80
2021/04/02 04:40:30;;;;;;;25.55;14.52;;;7.70;97.70;;;;;;6295087;28;20037;-80
2021/04/02 04:43:30;;;;;;;28.20;14.80;;;7.60;99.90;;;;;;6294198;28;20056;-80
2021/04/02 04:46:34;;;;;;;37.38;23.17;;;8.00;98.10;;;;;;6261408;28;20488;-80
2021/04/02 04:49:35;;;;;;;29.35;16.83;;;7.70;96.70;;;;;;6294872;28;20119;-80
2021/04/02 04:52:38;;;;;;;22.05;13.90;;;8.40;98.30;;;;;;6277567;28;20036;-80
2021/04/02 04:55:38;;;;;;;;;;;8.10;97.50;;;;;;6279281;28;20017;-80
2021/04/02 04:58:40;;;;;;;24.67;12.95;;;8.00;97.80;;;;;;6294678;28;20247;-80
2021/04/02 05:01:41;;;;;;;25.40;15.63;;;7.60;97.20;;;;;;6278158;28;20040;-80
2021/04/02 05:04:41;;;;;;;28.48;15.05;;;7.90;97.50;;;;;;6260752;28;20044;-79
2021/04/02 05:07:42;;;;;;;27.35;15.13;;;8.10;97.50;;;;;;6277747;28;20454;-80
2021/04/02 05:10:44;;;;;;;23.88;13.77;;;7.40;99.90;;;;;;6294327;28;20070;-80
2021/04/02 05:13:45;;;;;;;28.00;16.00;;;7.90;97.20;;;;;;6260965;28;20040;-80
2021/04/02 05:16:46;;;;;;;30.88;16.75;;;7.50;97.30;;;;;;6277433;28;20036;-80
2021/04/02 05:19:47;;;;;;;38.73;21.37;;;;;;;;;;6277328;28;20116;-80
2021/04/02 05:22:48;;;;;;;31.42;19.25;;;7.40;97.20;;;;;;6293922;28;20371;-80
2021/04/02 05:25:49;;;;;;;31.55;16.33;;;7.40;99.00;;;;;;6292951;28;20040;-80
2021/04/02 05:28:49;;;;;;;28.15;15.27;;;7.60;98.70;;;;;;6293712;28;20394;-80
2021/04/02 05:31:50;;;;;;;27.85;14.70;;;7.50;99.90;;;;;;6277007;28;20070;-80
2021/04/02 05:34:50;;;;;;;27.52;16.40;;;7.20;99.90;;;;;;6276744;28;20028;-80
2021/04/02 05:37:51;;;;;;;24.85;14.48;;;7.60;99.90;;;;;;6293544;28;20024;-80
2021/04/02 05:40:52;;;;;;;28.25;16.13;;;;;;;;;;6293151;28;20394;-80
2021/04/02 05:43:56;;;;;;;30.35;15.88;;;8.00;99.90;;;;;;6277025;28;20040;-80
2021/04/02 05:47:08;;;;;;;28.77;16.20;;;8.00;99.90;;;;;;6277032;28;20036;-80
2021/04/02 05:50:10;;;;;;;33.20;18.38;;;;;;;;;;6276708;28;20024;-80
2021/04/02 05:53:11;;;;;;;28.70;17.95;;;8.80;99.90;;;;;;6293128;28;20435;-80
2021/04/02 05:56:12;;;;;;;35.03;17.70;;;8.80;99.90;;;;;;6276722;28;20028;-80
2021/04/02 05:59:13;;;;;;;32.95;17.55;;;;;;;;;;6292618;28;20033;-80
2021/04/02 06:02:14;;;;;;;26.25;16.42;;;9.70;99.90;;;;;;6292804;28;20035;-80
2021/04/02 06:05:15;;;;;;;32.08;18.75;;;9.70;99.90;;;;;;6276402;28;20068;-80
2021/04/02 06:08:19;;;;;;;30.45;17.77;;;9.80;99.30;;;;;;6293014;28;20036;-80
2021/04/02 06:11:20;;;;;;;30.65;17.40;;;;;;;;;;6275824;28;20119;-80
2021/04/02 06:14:23;;;;;;;30.50;18.23;;;10.40;97.10;;;;;;6292685;28;20058;-80
2021/04/02 06:17:25;;;;;;;34.78;18.52;;;10.80;97.90;;;;;;6276890;28;20075;-80
2021/04/02 06:20:31;;;;;;;31.33;17.70;;;11.20;91.60;;;;;;6292207;28;20036;-80
2021/04/02 06:23:33;;;;;;;27.65;17.50;;;11.40;91.50;;;;;;6292479;28;20032;-80
2021/04/02 06:26:33;;;;;;;30.48;17.15;;;11.80;90.30;;;;;;6275605;28;20035;-81
2021/04/02 06:29:44;;;;;;;26.10;15.57;;;12.00;89.60;;;;;;6292205;28;20467;-81
2021/04/02 06:32:44;;;;;;;32.45;15.40;;;12.70;96.20;;;;;;6275327;28;20032;-81
2021/04/02 06:35:45;;;;;;;25.63;14.95;;;12.80;87.00;;;;;;6275250;28;20090;-81
2021/04/02 06:39:06;;;;;;;22.67;14.98;;;13.00;86.10;;;;;;6291261;28;20037;-80
2021/04/02 06:42:08;;;;;;;20.65;13.27;;;13.60;93.00;;;;;;6291283;28;20056;-80
2021/04/02 06:45:09;;;;;;;17.13;11.60;;;13.30;93.00;;;;;;6258380;28;20044;-80
2021/04/02 06:48:10;;;;;;;15.35;11.70;;;13.60;84.00;;;;;;6291989;28;20032;-80
2021/04/02 06:51:13;;;;;;;14.82;10.82;;;13.80;82.10;;;;;;6274978;28;20025;-78
2021/04/02 06:54:14;;;;;;;;;;;14.10;80.80;;;;;;6259310;28;20028;-79
2021/04/02 06:57:14;;;;;;;13.32;9.35;;;14.10;79.40;;;;;;6274991;28;19962;-78
2021/04/02 07:00:26;;;;;;;19.25;10.27;;;14.70;91.80;;;;;;6275286;28;20092;-78
2021/04/02 07:03:26;;;;;;;15.10;8.98;;;14.60;77.30;;;;;;6291861;28;20039;-78
2021/04/02 07:06:27;;;;;;;18.73;9.68;;;14.90;75.30;;;;;;6275228;28;20024;-78
2021/04/02 07:09:28;;;;;;;13.68;9.75;;;15.00;73.90;;;;;;6291789;28;20024;-79
2021/04/02 07:12:29;;;;;;;13.38;9.73;;;15.30;72.20;;;;;;6275291;28;20052;-79
2021/04/02 07:15:34;;;;;;;17.85;9.55;;;16.10;72.00;;;;;;6275512;28;20033;-79
2021/04/02 07:18:34;;;;;;;14.88;9.32;;;15.90;67.50;;;;;;6275034;28;20025;-78
2021/04/02 07:21:35;;;;;;;15.30;9.95;;;15.90;69.10;;;;;;6274780;28;20379;-78
2021/04/02 07:24:35;;;;;;;15.63;10.05;;;16.00;67.90;;;;;;6274546;28;20199;-79
2021/04/02 07:27:36;;;;;;;17.17;9.60;;;16.00;67.60;;;;;;6293204;28;20079;-79
2021/04/02 07:30:37;;;;;;;16.05;9.88;;;16.40;67.20;;;;;;6274237;28;20035;-79
2021/04/02 07:33:39;;;;;;;14.43;9.40;;;16.70;65.70;;;;;;6274408;28;20417;-79
2021/04/02 07:36:39;;;;;;;13.65;10.30;;;17.00;64.50;;;;;;6274502;28;20028;-79
2021/04/02 07:39:40;;;;;;;12.73;9.38;;;17.00;62.90;;;;;;6274877;28;20067;-79
2021/04/02 07:42:47;;;;;;;14.90;9.75;;;17.50;74.50;;;;;;6273778;28;20111;-79
2021/04/02 07:45:53;;;;;;;14.32;8.88;;;17.80;60.90;;;;;;6274963;28;20041;-79
2021/04/02 07:49:08;;;;;;;17.33;9.48;;;17.70;59.20;;;;;;6293639;28;20032;-79
2021/04/02 07:52:08;;;;;;;13.20;9.27;;;17.40;57.60;;;;;;6296140;28;20134;-79
2021/04/02 07:55:17;;;;;;;12.57;9.13;;;17.80;60.30;;;;;;6295973;28;20367;-79
2021/04/02 07:58:26;;;;;;;16.88;10.80;;;17.90;60.00;;;;;;6279423;28;20029;-79
2021/04/02 08:01:26;;;;;;;14.90;9.77;;;18.20;58.00;;;;;;6279041;28;20509;-79
2021/04/02 08:04:55;;;;;;;14.93;9.68;;;18.30;58.10;;;;;;6278544;28;20044;-79
2021/04/02 08:07:56;;;;;;;16.77;10.95;;;18.50;57.10;;;;;;6293914;28;20139;-79
2021/04/02 08:11:06;;;;;;;18.88;10.13;;;18.60;57.30;;;;;;6278860;28;20040;-79
2021/04/02 08:14:13;;;;;;;14.18;10.63;;;18.50;58.50;;;;;;6295444;28;20694;-79
2021/04/02 08:17:19;;;;;;;15.38;9.95;;;18.80;56.80;;;;;;6279992;28;20028;-79
2021/04/02 08:20:21;;;;;;;19.33;11.60;;;19.30;57.90;;;;;;6262152;28;20030;-79
2021/04/02 08:23:22;;;;;;;17.38;9.73;;;19.40;56.30;;;;;;6261456;28;20020;-79
2021/04/02 08:26:34;;;;;;;13.73;9.65;;;19.70;55.50;;;;;;6278073;28;20033;-79
2021/04/02 08:29:35;;;;;;;14.52;9.45;;;20.30;52.60;;;;;;6296186;28;20028;-80
2021/04/02 08:32:41;;;;;;;12.52;9.30;;;20.10;55.00;;;;;;6296091;28;20082;-79
2021/04/02 08:35:41;;;;;;;13.93;9.38;;;20.50;53.80;;;;;;6261972;28;20028;-79
2021/04/02 08:38:46;;;;;;;14.52;9.40;;;20.40;53.70;;;;;;6278477;28;20040;-79
2021/04/02 08:41:47;;;;;;;14.20;8.75;;;20.90;70.80;;;;;;6294126;28;20037;-79
2021/04/02 08:44:48;;;;;;;15.40;8.80;;;20.90;53.30;;;;;;6294661;28;20090;-79
2021/04/02 08:47:48;;;;;;;11.10;8.25;;;20.60;85.60;;;;;;6294607;28;20021;-79
2021/04/02 08:50:49;;;;;;;10.65;7.97;;;20.40;84.20;;;;;;6295989;28;20025;-79
2021/04/02 08:53:50;;;;;;;13.77;8.57;;;;;;;;;;6294662;28;20028;-79
2021/04/02 08:56:51;;;;;;;11.90;8.13;;;;;;;;;;6278062;28;20409;-79
2021/04/02 08:59:53;;;;;;;13.15;8.18;;;;;;;;;;6276450;28;20025;-79
2021/04/02 09:02:54;;;;;;;13.02;9.90;;;;;;;;;;6294336;28;20032;-79
2021/04/02 09:05:55;;;;;;;11.70;8.15;;;;;;;;;;6277494;28;20110;-79
2021/04/02 09:08:55;;;;;;;11.45;8.55;;;21.10;83.40;;;;;;6277364;28;20028;-79
2021/04/02 09:11:56;;;;;;;10.27;8.10;;;21.20;65.90;;;;;;6261027;28;20123;-79
2021/04/02 09:14:57;;;;;;;13.43;9.20;;;21.10;50.40;;;;;;6277456;28;20443;-79
2021/04/02 09:18:19;;;;;;;14.88;8.70;;;21.20;49.30;;;;;;6277118;28;20039;-79
2021/04/02 09:21:21;;;;;;;19.30;10.02;;;21.40;61.30;;;;;;6277041;28;20058;-79
2021/04/02 09:24:22;;;;;;;13.17;8.90;;;21.30;49.00;;;;;;6277385;28;20063;-80
2021/04/02 09:27:23;;;;;;;12.05;8.85;;;21.10;49.50;;;;;;6293345;28;20028;-79
2021/04/02 09:30:26;;;;;;;13.82;9.25;;;21.30;50.20;;;;;;6277197;28;20060;-79
2021/04/02 09:33:27;;;;;;;14.60;9.45;;;21.30;50.00;;;;;;6277127;28;20029;-79
2021/04/02 09:36:30;;;;;;;16.45;9.50;;;21.40;49.90;;;;;;6277481;28;20056;-79
2021/04/02 09:39:31;;;;;;;14.82;10.07;;;21.40;50.40;;;;;;6276617;28;20062;-79
2021/04/02 09:42:33;;;;;;;16.45;9.60;;;21.20;51.10;;;;;;6293164;28;20079;-79
2021/04/02 09:45:33;;;;;;;14.95;9.88;;;21.00;51.70;;;;;;6276721;28;20474;-79
2021/04/02 09:48:37;;;;;;;11.70;9.43;;;21.00;51.70;;;;;;6260063;28;20132;-79
2021/04/02 09:51:49;;;;;;;13.55;9.70;;;20.90;51.50;;;;;;6260256;28;20035;-80
2021/04/02 09:54:50;;;;;;;11.93;9.88;;;21.10;48.90;;;;;;6293239;28;20028;-79
2021/04/02 09:57:51;;;;;;;16.13;9.75;;;21.10;51.60;;;;;;6293079;28;20613;-78
2021/04/02 10:00:51;;;;;;;16.08;11.13;;;21.00;50.20;;;;;;6292563;28;20028;-79
2021/04/02 10:03:54;;;;;;;15.05;11.23;;;21.00;50.80;;;;;;6292864;28;20075;-79
2021/04/02 10:06:55;;;;;;;15.50;10.82;;;20.70;49.40;;;;;;6276359;28;20028;-79
2021/04/02 10:09:56;;;;;;;15.07;11.55;;;20.90;51.00;;;;;;6259512;28;20024;-79
2021/04/02 10:12:56;;;;;;;13.02;10.45;;;20.70;51.60;;;;;;6259088;28;20119;-78
2021/04/02 10:15:57;;;;;;;18.67;11.88;;;21.00;51.70;;;;;;6275950;28;20029;-79
2021/04/02 10:18:58;;;;;;;16.33;10.70;;;;;;;;;;6275973;28;20029;-79
2021/04/02 10:21:59;;;;;;;17.40;11.68;;;21.10;49.10;;;;;;6292731;28;20021;-79
2021/04/02 10:24:59;;;;;;;15.30;11.93;;;21.10;50.10;;;;;;6292453;28;20048;-79
2021/04/02 10:28:01;;;;;;;16.88;11.65;;;21.10;50.40;;;;;;6293479;28;20032;-79
2021/04/02 10:31:01;;;;;;;17.55;10.88;;;21.10;49.80;;;;;;6259550;28;20455;-79
2021/04/02 10:34:02;;;;;;;13.98;11.57;;;21.50;49.10;;;;;;6292230;28;20040;-79
2021/04/02 10:37:03;;;;;;;18.25;12.05;;;21.70;48.60;;;;;;6292321;28;20421;-79
2021/04/02 10:40:04;;;;;;;18.83;12.73;;;21.80;49.60;;;;;;6292023;28;20120;-81
2021/04/02 10:43:05;;;;;;;14.20;11.87;;;21.30;50.80;;;;;;6291727;28;20057;-80
2021/04/02 10:46:06;;;;;;;15.05;12.23;;;21.40;50.30;;;;;;6275123;28;20068;-80
2021/04/02 10:49:06;;;;;;;19.13;12.52;;;21.60;50.00;;;;;;6258522;28;20024;-79
2021/04/02 10:52:07;;;;;;;19.92;12.63;;;21.90;49.30;;;;;;6292122;28;20474;-80
2021/04/02 10:55:08;;;;;;;16.65;12.63;;;21.90;48.80;;;;;;6291932;28;20032;-79
2021/04/02 10:58:10;;;;;;;16.60;12.80;;;21.80;50.40;;;;;;6274966;28;20386;-80
2021/04/02 11:01:11;;;;;;;13.70;11.83;;;21.80;50.40;;;;;;6258224;28;20048;-80
2021/04/02 11:04:12;;;;;;;18.00;12.93;;;21.70;50.80;;;;;;6291630;28;20068;-80
2021/04/02 11:07:12;;;;;;;17.20;11.82;;;21.60;49.70;;;;;;6292121;28;20086;-79
2021/04/02 11:10:13;;;;;;;21.10;12.77;;;21.60;49.60;;;;;;6291618;28;20075;-80
2021/04/02 11:13:14;;;;;;;16.75;12.35;;;21.40;51.20;;;;;;6291304;28;20036;-79
2021/04/02 11:16:14;;;;;;;17.20;11.93;;;21.30;48.30;;;;;;6275031;28;20028;-79
2021/04/02 11:19:15;;;;;;;17.20;13.38;;;21.20;50.10;;;;;;6275149;28;20035;-79
2021/04/02 11:22:15;;;;;;;16.50;11.90;;;21.30;51.20;;;;;;6291192;28;20024;-80
2021/04/02 11:25:16;;;;;;;19.25;11.15;;;21.20;51.50;;;;;;6296294;28;20100;-79
2021/04/02 11:28:17;;;;;;;16.02;12.13;;;21.40;50.20;;;;;;6297728;28;20033;-79
2021/04/02 11:31:18;;;;;;;15.73;12.07;;;21.30;51.60;;;;;;6296631;28;20025;-79
2021/04/02 11:34:19;;;;;;;13.23;11.35;;;21.10;49.80;;;;;;6280026;28;20071;-80
2021/04/02 11:37:20;;;;;;;15.27;11.90;;;21.10;50.70;;;;;;6297730;28;20028;-80
2021/04/02 11:40:20;;;;;;;17.48;12.23;;;21.30;49.70;;;;;;6262922;28;20039;-80
2021/04/02 11:43:21;;;;;;;17.10;11.55;;;20.90;49.10;;;;;;6278734;28;20076;-80
2021/04/02 11:46:21;;;;;;;16.80;12.23;;;20.90;51.00;;;;;;6296320;28;20056;-79
2021/04/02 11:49:22;;;;;;;16.92;11.63;;;20.90;51.60;;;;;;6295886;28;20052;-80
2021/04/02 11:52:23;;;;;;;16.98;11.85;;;20.60;50.60;;;;;;6279358;28;20058;-80
2021/04/02 11:55:23;;;;;;;18.52;11.60;;;20.60;50.60;;;;;;6297174;28;20033;-80
2021/04/02 11:58:24;;;;;;;14.38;11.30;;;20.30;51.70;;;;;;6296112;28;20031;-80
2021/04/02 12:01:25;;;;;;;13.57;10.77;;;20.20;53.10;;;;;;6296198;28;20032;-80
2021/04/02 12:04:25;;;;;;;14.90;11.15;;;20.30;51.50;;;;;;6278956;28;20494;-80
2021/04/02 12:07:26;;;;;;;15.95;11.15;;;20.30;52.10;;;;;;6262107;28;20125;-80
2021/04/02 12:10:27;;;;;;;13.88;10.27;;;20.20;51.90;;;;;;6295750;28;20060;-79
2021/04/02 12:13:27;;;;;;;13.35;10.73;;;20.00;50.60;;;;;;6278858;28;20036;-80
2021/04/02 12:16:28;;;;;;;13.35;9.93;;;20.20;52.60;;;;;;6296350;28;20461;-80
2021/04/02 12:19:28;;;;;;;17.73;11.30;;;19.90;53.20;;;;;;6296676;28;20025;-80
2021/04/02 12:22:29;;;;;;;14.63;11.05;;;;;;;;;;6296291;28;20068;-79
2021/04/02 12:25:30;;;;;;;12.60;10.07;;;20.10;79.40;;;;;;6295185;28;20036;-80
2021/04/02 12:28:32;;;;;;;15.32;10.48;;;20.30;63.50;;;;;;6278473;28;20440;-80
2021/04/02 12:31:33;;;;;;;12.68;10.30;;;19.30;63.80;;;;;;6295227;28;20028;-80
2021/04/02 12:34:34;;;;;;;13.82;10.10;;;;;;;;;;6296411;28;20040;-80
2021/04/02 12:37:34;;;;;;;12.15;9.73;;;20.10;61.30;;;;;;6294818;28;20112;-79
2021/04/02 12:40:36;;;;;;;15.13;10.52;;;19.90;64.60;;;;;;6278127;28;20046;-80
2021/04/02 12:43:36;;;;;;;13.47;9.83;;;19.80;64.60;;;;;;6294589;28;20058;-80
2021/04/02 12:46:37;;;;;;;13.15;10.80;;;19.70;62.80;;;;;;6278185;28;20079;-80
2021/04/02 12:49:38;;;;;;;14.88;9.90;;;;;;;;;;6277747;28;20442;-80
2021/04/02 12:52:39;;;;;;;13.95;10.43;;;19.70;62.30;;;;;;6295933;28;20024;-80
2021/04/02 12:55:41;;;;;;;12.55;10.43;;;20.00;66.30;;;;;;6278056;28;20515;-79
2021/04/02 12:58:41;;;;;;;15.52;10.20;;;19.70;67.30;;;;;;6294205;28;20028;-79
2021/04/02 13:01:42;;;;;;;13.82;10.02;;;19.80;53.90;;;;;;6277490;28;20547;-79
2021/04/02 13:04:43;;;;;;;14.55;10.65;;;19.70;54.30;;;;;;6294372;28;20119;-79
2021/04/02 13:07:43;;;;;;;15.85;10.02;;;19.60;54.10;;;;;;6294410;28;20692;-79
2021/04/02 13:10:44;;;;;;;15.90;10.90;;;19.60;55.40;;;;;;6294018;28;20108;-79
2021/04/02 13:13:45;;;;;;;14.05;10.02;;;19.40;55.00;;;;;;6294073;28;20036;-79
2021/04/02 13:16:46;;;;;;;12.95;9.93;;;19.40;54.10;;;;;;6277299;28;20455;-80
2021/04/02 13:19:46;;;;;;;13.55;10.90;;;19.50;55.60;;;;;;6277633;28;20032;-79
2021/04/02 13:22:48;;;;;;;13.93;10.80;;;19.40;54.70;;;;;;6276996;28;20029;-80
2021/04/02 13:25:49;;;;;;;14.27;10.32;;;19.30;55.10;;;;;;6277094;28;20044;-79
2021/04/02 13:28:49;;;;;;;13.77;10.00;;;19.20;56.20;;;;;;6260538;28;20078;-80
2021/04/02 13:31:50;;;;;;;10.93;9.25;;;19.20;56.20;;;;;;6276809;28;20035;-80
2021/04/02 13:34:50;;;;;;;13.90;9.55;;;19.20;56.00;;;;;;6277145;28;20037;-79
2021/04/02 13:37:52;;;;;;;14.02;10.88;;;19.20;56.60;;;;;;6276853;28;20055;-79
2021/04/02 13:40:52;;;;;;;14.60;11.32;;;19.10;55.10;;;;;;6260225;28;20028;-79
2021/04/02 13:43:53;;;;;;;12.00;10.40;;;19.20;57.30;;;;;;6292655;28;20073;-80
2021/04/02 13:46:53;;;;;;;16.83;9.95;;;19.10;56.20;;;;;;6293818;28;20596;-79
2021/04/02 13:49:54;;;;;;;12.68;9.93;;;19.10;56.30;;;;;;6294678;28;20398;-79
2021/04/02 13:52:55;;;;;;;13.73;10.35;;;19.10;56.10;;;;;;6259601;28;20112;-80
2021/04/02 13:55:56;;;;;;;15.63;10.75;;;19.10;56.00;;;;;;6292987;28;21087;-79
2021/04/02 13:58:57;;;;;;;12.77;10.38;;;19.10;56.10;;;;;;6276466;28;20089;-79
2021/04/02 14:01:57;;;;;;;14.73;10.43;;;19.10;55.50;;;;;;6276209;28;20029;-79
2021/04/02 14:04:58;;;;;;;13.95;10.38;;;19.00;56.20;;;;;;6276364;28;20044;-79
2021/04/02 14:07:58;;;;;;;13.10;9.75;;;18.90;56.90;;;;;;6292624;28;20027;-79
2021/04/02 14:10:59;;;;;;;14.50;10.20;;;19.20;56.10;;;;;;6259475;28;20029;-79
2021/04/02 14:13:59;;;;;;;11.43;9.43;;;19.00;55.90;;;;;;6292602;28;20398;-79
2021/04/02 14:17:00;;;;;;;14.20;10.25;;;19.00;56.30;;;;;;6293931;28;20020;-79
2021/04/02 14:20:01;;;;;;;13.52;10.02;;;18.90;56.30;;;;;;6275642;28;20033;-79
2021/04/02 14:23:02;;;;;;;13.17;10.40;;;18.90;55.80;;;;;;6293673;28;20034;-79
2021/04/02 14:26:03;;;;;;;14.98;9.75;;;18.80;56.30;;;;;;6292170;28;20052;-79
2021/04/02 14:29:04;;;;;;;19.13;11.15;;;18.60;57.30;;;;;;6292212;28;20024;-79
2021/04/02 14:32:05;;;;;;;14.82;10.43;;;18.50;56.80;;;;;;6292075;28;20059;-79
2021/04/02 14:35:06;;;;;;;13.35;10.00;;;18.40;56.30;;;;;;6291849;28;20033;-79
2021/04/02 14:38:11;;;;;;;14.20;9.17;;;18.40;55.30;;;;;;6275548;28;20043;-79
2021/04/02 14:41:11;;;;;;;14.48;10.15;;;18.60;74.50;;;;;;6291784;28;20040;-79
2021/04/02 14:44:12;;;;;;;13.25;9.70;;;18.40;57.90;;;;;;6259018;28;20551;-80
2021/04/02 14:47:12;;;;;;;12.20;8.30;;;18.30;58.30;;;;;;6294113;28;20055;-79
2021/04/02 14:50:13;;;;;;;15.68;10.32;;;18.40;57.20;;;;;;6275126;28;20029;-79
2021/04/02 14:53:14;;;;;;;14.63;9.60;;;18.30;57.60;;;;;;6275129;28;20538;-79
2021/04/02 14:56:14;;;;;;;14.32;9.65;;;18.20;57.10;;;;;;6291696;28;20157;-79
2021/04/02 14:59:15;;;;;;;13.27;8.88;;;18.40;57.70;;;;;;6274115;28;20032;-79
2021/04/02 15:02:16;;;;;;;13.73;9.27;;;18.00;57.70;;;;;;6293235;28;20249;-79
2021/04/02 15:05:18;;;;;;;13.20;9.70;;;18.00;57.30;;;;;;6258474;28;20041;-79
2021/04/02 15:08:19;;;;;;;13.93;10.35;;;18.00;54.40;;;;;;6258415;28;20113;-79
2021/04/02 15:11:20;;;;;;;11.55;8.90;;;17.90;55.60;;;;;;6291263;28;20386;-79
2021/04/02 15:14:21;;;;;;;12.57;9.35;;;17.70;55.40;;;;;;6275142;28;20032;-79
2021/04/02 15:17:21;;;;;;;11.52;8.38;;;17.60;55.60;;;;;;6274958;28;20037;-79
2021/04/02 15:20:22;;;;;;;10.57;7.97;;;17.50;56.60;;;;;;6291317;28;20371;-78
2021/04/02 15:23:23;;;;;;;13.77;8.55;;;17.60;58.20;;;;;;6274667;28;20021;-79
2021/04/02 15:26:23;;;;;;;12.23;7.53;;;17.40;55.50;;;;;;6274721;28;20044;-79
2021/04/02 15:29:24;;;;;;;10.98;7.50;;;17.30;55.70;;;;;;6291175;28;20071;-79
2021/04/02 15:32:25;;;;;;;11.82;8.05;;;17.20;54.20;;;;;;6274786;28;20546;-79
2021/04/02 15:35:26;;;;;;;8.90;7.95;;;17.30;54.10;;;;;;6274937;28;20032;-79
2021/04/02 15:38:27;;;;;;;11.43;7.75;;;17.10;55.20;;;;;;6274511;28;20382;-79